Time;durP1;ratioP1;P1;durP2;ratioP2;P2;SDS_P1;SDS_P2;PMS_P1;PMS_P2;Temp;Humidity;BMP_temperature;BMP_pressure;BME280_temperature;BME280_humidity;BME280_pressure;Samples;Min_cycle;Max_cycle;Signal;HPM_P1;HPM_P2
2022/05/10 00:02:33;;;;;;;;;;;;;;;11.56;28.96;95900.59;6368465;27;20014;-65
2022/05/10 00:05:39;;;;;;;;;;;;;;;11.48;29.28;95908.31;6369211;27;20307;-64
2022/05/10 00:08:43;;;;;;;;;;;;;;;11.48;29.38;95896.94;6370602;27;19924;-65
2022/05/10 00:11:44;;;;;;;;;;;;;;;11.49;29.57;95891.53;6367837;27;20320;-64
2022/05/10 00:14:48;;;;;;;;;;;;;;;11.55;29.56;95898.94;6370830;27;19924;-65
2022/05/10 00:17:49;;;;;;;;;;;;;;;11.60;29.73;95902.00;6364351;27;19927;-65
2022/05/10 00:20:52;;;;;;;;;;;;;;;11.53;29.76;95894.75;6370558;27;19923;-65
2022/05/10 00:23:56;;;;;;;;;;;;;;;11.65;29.71;95897.16;6369435;27;20293;-65
2022/05/10 00:26:57;;;;;;;;;;;;;;;11.69;29.67;95893.31;6369224;27;19927;-64
2022/05/10 00:30:00;;;;;;;;;;;;;;;11.54;30.13;95891.97;6366334;27;19923;-65
2022/05/10 00:33:03;;;;;;;;;;;;;;;11.71;29.91;95889.72;6367635;27;19923;-64
2022/05/10 00:36:05;;;;;;;;;;;;;;;11.60;30.17;95886.19;6348023;27;19972;-65
2022/05/10 00:39:09;;;;;;;;;;;;;;;11.58;30.34;95885.50;6369840;27;19923;-65
2022/05/10 00:42:22;;;;;;;;;;;;;;;11.64;30.45;95882.34;6367632;27;19923;-64
2022/05/10 00:45:33;;;;;;;;;;;;;;;11.59;31.02;95889.78;6367255;27;19934;-65
2022/05/10 00:48:43;;;;;;;;;;;;;;;11.63;31.24;95883.31;6369346;27;20017;-65
2022/05/10 00:51:46;;;;;;;;;;;;;;;11.54;31.94;95881.44;6366838;27;19923;-66
2022/05/10 00:54:57;;;;;;;;;;;;;;;11.41;32.60;95878.19;6366842;27;19923;-65
2022/05/10 00:58:08;;;;;;;;;;;;;;;11.46;32.80;95868.06;6367638;27;19924;-64
2022/05/10 01:01:14;;;;;;;;;;;;;;;11.45;32.77;95867.25;6364356;27;19957;-65
2022/05/10 01:04:33;;;;;;;;;;;;;;;11.48;32.86;95860.88;6362785;27;20030;-65
2022/05/10 01:07:42;;;;;;;;;;;;;;;11.51;33.10;95854.53;6364574;27;19930;-65
2022/05/10 01:10:53;;;;;;;;;;;;;;;11.43;33.07;95852.53;6365110;27;20426;-65
2022/05/10 01:14:01;;;;;;;;;;;;;;;11.48;33.48;95839.81;6369857;27;19927;-65
2022/05/10 01:17:02;;;;;;;;;;;;;;;11.54;33.70;95831.38;6366246;27;19946;-64
2022/05/10 01:20:04;;;;;;;;;;;;;;;11.52;33.95;95825.44;6368022;27;20029;-65
2022/05/10 01:23:23;;;;;;;;;;;;;;;11.53;34.62;95824.44;6367434;27;19930;-65
2022/05/10 01:26:33;;;;;;;;;;;;;;;11.31;35.12;95824.59;6368911;27;20303;-65
2022/05/10 01:29:53;;;;;;;;;;;;;;;11.10;35.61;95816.72;6369297;27;20296;-65
2022/05/10 01:36:13;;;;;;;;;;;;;;;10.97;36.14;95798.47;6364263;27;20320;-65
2022/05/10 01:39:23;;;;;;;;;;;;;;;10.93;36.67;95812.88;6367998;27;19924;-66
2022/05/10 01:42:37;;;;;;;;;;;;;;;10.95;36.43;95810.91;6368171;27;19923;-65
2022/05/10 01:45:43;;;;;;;;;;;;;;;10.97;36.64;95819.53;6367581;27;19923;-66
2022/05/10 01:48:50;;;;;;;;;;;;;;;11.01;36.95;95813.03;6366485;27;19927;-65
2022/05/10 01:51:57;;;;;;;;;;;;;;;10.94;37.13;95819.78;6366476;27;19946;-66
2022/05/10 01:55:04;;;;;;;;;;;;;;;10.93;37.75;95829.50;6367140;27;19946;-65
2022/05/10 01:58:09;;;;;;;;;;;;;;;10.95;37.50;95822.28;6366756;27;20296;-65
2022/05/10 02:01:14;;;;;;;;;;;;;;;10.97;37.46;95819.53;6362876;27;19928;-66
2022/05/10 02:04:25;;;;;;;;;;;;;;;10.98;37.41;95819.41;6367920;27;19923;-67
2022/05/10 02:07:30;;;;;;;;;;;;;;;11.06;37.20;95818.75;6358132;27;19923;-66
2022/05/10 02:10:37;;;;;;;;;;;;;;;11.13;37.22;95809.41;6364293;28;19934;-65
2022/05/10 02:13:50;;;;;;;;;;;;;;;11.12;37.15;95809.50;6360780;28;19924;-65
2022/05/10 02:16:57;;;;;;;;;;;;;;;11.15;36.89;95802.22;6365388;28;19927;-66
2022/05/10 02:19:58;;;;;;;;;;;;;;;11.24;37.28;95816.41;6360665;27;19923;-66
2022/05/10 02:22:59;;;;;;;;;;;;;;;11.18;37.05;95817.75;6372678;27;19927;-65
2022/05/10 02:26:06;;;;;;;;;;;;;;;11.15;37.19;95809.25;6355156;27;19929;-66
2022/05/10 02:29:10;;;;;;;;;;;;;;;11.15;37.17;95807.47;6367523;27;19927;-65
2022/05/10 02:35:46;;;;;;;;;;;;;;;11.23;37.50;95807.63;6362548;27;19923;-66
2022/05/10 02:38:49;;;;;;;;;;;;;;;11.17;37.58;95805.53;6372320;27;19924;-66
2022/05/10 02:41:51;;;;;;;;;;;;;;;11.14;38.40;95815.50;6371837;27;20356;-66
2022/05/10 02:44:55;;;;;;;;;;;;;;;11.07;39.01;95809.91;6372973;27;19919;-65
2022/05/10 02:48:00;;;;;;;;;;;;;;;10.95;39.72;95795.13;6369022;27;20034;-65
2022/05/10 02:51:01;;;;;;;;;;;;;;;10.95;39.61;95800.41;6367844;27;20566;-65
2022/05/10 02:54:02;;;;;;;;;;;;;;;10.89;40.00;95796.47;6370295;27;19919;-65
2022/05/10 02:57:06;;;;;;;;;;;;;;;10.81;40.65;95784.91;6372791;27;19923;-65
2022/05/10 03:00:07;;;;;;;;;;;;;;;10.78;41.62;95784.22;6368907;27;19958;-65
2022/05/10 03:03:15;;;;;;;;;;;;;;;10.72;41.40;95783.88;6370816;27;19930;-65
2022/05/10 03:06:18;;;;;;;;;;;;;;;10.67;41.95;95779.03;6368958;27;19927;-66
2022/05/10 03:09:19;;;;;;;;;;;;;;;10.55;42.79;95785.28;6370971;27;20411;-66
2022/05/10 03:12:20;;;;;;;;;;;;;;;10.45;43.46;95781.75;6371273;27;20497;-65
2022/05/10 03:15:23;;;;;;;;;;;;;;;10.38;43.17;95764.78;6368821;27;19931;-65
2022/05/10 03:18:24;;;;;;;;;;;;;;;10.40;43.21;95760.25;6368976;27;20015;-65
2022/05/10 03:21:25;;;;;;;;;;;;;;;10.42;43.59;95745.19;6369952;27;20396;-65
2022/05/10 03:24:27;;;;;;;;;;;;;;;10.44;44.31;95748.50;6368992;27;21142;-66
2022/05/10 03:27:34;;;;;;;;;;;;;;;10.33;44.94;95739.72;6371724;27;20312;-65
2022/05/10 03:30:35;;;;;;;;;;;;;;;10.28;44.85;95731.38;6367303;27;19927;-65
2022/05/10 03:33:36;;;;;;;;;;;;;;;10.15;44.99;95722.78;6369995;27;20412;-65
2022/05/10 03:36:38;;;;;;;;;;;;;;;10.00;45.55;95718.78;6371163;27;19971;-65
2022/05/10 03:39:45;;;;;;;;;;;;;;;9.95;45.92;95716.50;6346097;27;19923;-65
2022/05/10 03:42:49;;;;;;;;;;;;;;;10.03;47.05;95708.00;6368601;27;19923;-66
2022/05/10 03:45:50;;;;;;;;;;;;;;;9.99;49.45;95706.56;6369907;27;19927;-65
2022/05/10 03:48:53;;;;;;;;;;;;;;;10.07;51.10;95704.16;6365851;27;19923;-65
2022/05/10 03:51:54;;;;;;;;;;;;;;;9.88;52.86;95699.59;6370354;27;19923;-65
2022/05/10 03:54:55;;;;;;;;;;;;;;;9.56;54.50;95720.53;6370350;27;19924;-66
2022/05/10 03:57:59;;;;;;;;;;;;;;;9.54;55.99;95730.31;6370871;27;19981;-65
2022/05/10 04:01:07;;;;;;;;;;;;;;;9.50;57.34;95731.53;6365243;27;20304;-65
2022/05/10 04:04:08;;;;;;;;;;;;;;;9.41;57.88;95733.91;6364957;27;20273;-66
2022/05/10 04:07:12;;;;;;;;;;;;;;;9.50;58.82;95731.53;6370113;27;19923;-65
2022/05/10 04:10:14;;;;;;;;;;;;;;;9.34;59.62;95727.47;6368177;27;20449;-66
2022/05/10 04:13:17;;;;;;;;;;;;;;;9.29;59.95;95724.38;6370119;27;19923;-65
2022/05/10 04:16:18;;;;;;;;;;;;;;;9.02;60.62;95721.25;6368763;27;19923;-66
2022/05/10 04:19:19;;;;;;;;;;;;;;;8.94;62.29;95716.59;6365541;27;20318;-66
2022/05/10 04:22:20;;;;;;;;;;;;;;;8.93;62.90;95721.00;6368159;27;19923;-66
2022/05/10 04:25:26;;;;;;;;;;;;;;;8.91;63.83;95725.53;6370555;27;20398;-66
2022/05/10 04:28:27;;;;;;;;;;;;;;;8.98;64.53;95732.00;6370334;27;20005;-67
2022/05/10 04:31:28;;;;;;;;;;;;;;;9.06;64.89;95727.94;6362304;27;20285;-67
2022/05/10 04:34:33;;;;;;;;;;;;;;;9.01;65.54;95730.94;6366656;27;19923;-67
2022/05/10 04:37:37;;;;;;;;;;;;;;;9.06;65.68;95720.06;6369267;27;19924;-67
2022/05/10 04:44:10;;;;;;;;;;;;;;;9.10;66.91;95713.63;6363150;27;19946;-67
2022/05/10 04:47:11;;;;;;;;;;;;;;;9.05;66.75;95710.53;6367891;27;19930;-67
2022/05/10 04:50:13;;;;;;;;;;;;;;;9.10;67.67;95708.38;6367317;27;19930;-68
2022/05/10 04:53:14;;;;;;;;;;;;;;;9.20;67.91;95712.81;6368428;27;20041;-67
2022/05/10 04:56:16;;;;;;;;;;;;;;;9.17;67.94;95712.19;6369754;27;19929;-66
2022/05/10 04:59:19;;;;;;;;;;;;;;;9.20;68.67;95709.34;6372142;27;19927;-67
2022/05/10 05:02:20;;;;;;;;;;;;;;;9.28;69.12;95709.56;6370191;27;20293;-68
2022/05/10 05:05:23;;;;;;;;;;;;;;;9.28;69.59;95706.94;6367074;27;19982;-68
2022/05/10 05:08:27;;;;;;;;;;;;;;;9.26;69.85;95705.41;6366497;27;19932;-68
2022/05/10 05:11:33;;;;;;;;;;;;;;;9.32;70.20;95703.13;6365655;27;19924;-69
2022/05/10 05:14:36;;;;;;;;;;;;;;;9.32;70.41;95711.00;6366543;27;20315;-69
2022/05/10 05:17:42;;;;;;;;;;;;;;;9.31;70.37;95711.94;6365488;27;19923;-68
2022/05/10 05:20:45;;;;;;;;;;;;;;;9.35;70.78;95702.88;6346310;28;20322;-69
2022/05/10 05:23:49;;;;;;;;;;;;;;;9.35;71.32;95705.50;6366717;27;20017;-69
2022/05/10 05:26:52;;;;;;;;;;;;;;;9.48;71.26;95701.91;6352798;27;20000;-68
2022/05/10 05:29:55;;;;;;;;;;;;;;;9.46;71.52;95704.69;6358497;27;19927;-69
2022/05/10 05:32:57;;;;;;;;;;;;;;;9.46;71.70;95699.44;6365862;27;20281;-69
2022/05/10 05:36:00;;;;;;;;;;;;;;;9.42;72.07;95704.06;6371463;27;19919;-68
2022/05/10 05:39:03;;;;;;;;;;;;;;;9.43;72.43;95700.50;6371041;27;20380;-69
2022/05/10 05:42:04;;;;;;;;;;;;;;;9.40;72.39;95708.63;6370560;27;19999;-68
2022/05/10 05:45:09;;;;;;;;;;;;;;;9.34;72.65;95703.84;6371467;27;19923;-70
2022/05/10 05:48:15;;;;;;;;;;;;;;;9.29;73.00;95703.38;6370253;27;20026;-69
2022/05/10 05:51:16;;;;;;;;;;;;;;;9.32;72.97;95713.63;6370930;27;20442;-70
2022/05/10 05:54:19;;;;;;;;;;;;;;;9.24;73.11;95702.91;6370220;27;20331;-69
2022/05/10 05:57:22;;;;;;;;;;;;;;;9.22;73.54;95707.41;6368574;27;20010;-69
2022/05/10 06:00:24;;;;;;;;;;;;;;;9.29;73.80;95707.78;6370615;27;20292;-69
2022/05/10 06:03:25;;;;;;;;;;;;;;;9.18;74.00;95696.34;6369539;27;19923;-70
2022/05/10 06:06:31;;;;;;;;;;;;;;;9.14;74.28;95699.31;6370103;27;20272;-71
2022/05/10 06:09:32;;;;;;;;;;;;;;;9.28;74.53;95695.59;6370157;27;20338;-71
2022/05/10 06:12:36;;;;;;;;;;;;;;;9.29;74.72;95692.03;6370197;28;20406;-70
2022/05/10 06:15:42;;;;;;;;;;;;;;;9.22;74.85;95686.44;6361960;28;19923;-69
2022/05/10 06:18:48;;;;;;;;;;;;;;;9.25;75.20;95691.44;6370891;28;19924;-70
2022/05/10 06:21:51;;;;;;;;;;;;;;;9.16;75.08;95672.00;6367118;28;19965;-69
2022/05/10 06:24:52;;;;;;;;;;;;;;;9.24;75.40;95671.41;6364776;28;19927;-70
2022/05/10 06:27:56;;;;;;;;;;;;;;;9.25;75.62;95670.44;6367553;28;20296;-65
2022/05/10 06:31:02;;;;;;;;;;;;;;;9.23;75.87;95664.50;6371385;28;20030;-65
2022/05/10 06:34:10;;;;;;;;;;;;;;;9.26;75.92;95661.63;6370215;28;19923;-64
2022/05/10 06:38:15;;;;;;;;;;;;;;;9.33;76.24;95657.53;6363106;28;19935;-64
2022/05/10 06:40:35;;;;;;;;;;;;;;;9.31;76.39;95656.81;6344614;28;19923;-63
2022/05/10 06:43:36;;;;;;;;;;;;;;;9.38;76.24;95660.63;6347684;28;19923;-63
2022/05/10 06:46:37;;;;;;;;;;;;;;;9.42;76.54;95667.31;6370753;28;19929;-67
2022/05/10 06:49:38;;;;;;;;;;;;;;;9.33;76.84;95662.78;6366551;28;20376;-62
2022/05/10 06:52:40;;;;;;;;;;;;;;;9.49;76.56;95656.34;6370303;28;19935;-62
2022/05/10 06:55:42;;;;;;;;;;;;;;;9.50;76.83;95655.38;6368537;28;19924;-63
2022/05/10 06:58:46;;;;;;;;;;;;;;;9.58;76.68;95663.47;6369548;28;20393;-63
2022/05/10 07:01:47;;;;;;;;;;;;;;;9.53;76.61;95657.75;6351922;28;19959;-62
2022/05/10 07:04:51;;;;;;;;;;;;;;;9.67;76.63;95654.84;6364904;28;20295;-62
2022/05/10 07:07:52;;;;;;;;;;;;;;;9.68;76.67;95653.88;6369522;27;19923;-63
2022/05/10 07:10:53;;;;;;;;;;;;;;;9.61;76.90;95644.84;6369975;27;19927;-63
2022/05/10 07:13:54;;;;;;;;;;;;;;;9.64;77.15;95645.41;6364577;27;20310;-64
2022/05/10 07:16:56;;;;;;;;;;;;;;;9.64;77.27;95642.78;6366094;27;19924;-62
2022/05/10 07:19:57;;;;;;;;;;;;;;;9.77;76.62;95645.28;6367367;27;20006;-64
2022/05/10 07:22:58;;;;;;;;;;;;;;;9.82;76.56;95643.13;6373195;27;20398;-63
2022/05/10 07:26:02;;;;;;;;;;;;;;;10.02;75.95;95652.00;6367006;27;19923;-63
2022/05/10 07:29:03;;;;;;;;;;;;;;;10.08;75.38;95645.41;6351347;27;20087;-62
2022/05/10 07:32:08;;;;;;;;;;;;;;;10.12;75.76;95646.78;6367333;27;19942;-62
2022/05/10 07:35:10;;;;;;;;;;;;;;;10.22;75.29;95652.97;6366755;27;19984;-62
2022/05/10 07:38:12;;;;;;;;;;;;;;;10.16;75.51;95640.31;6373773;27;20011;-62
2022/05/10 07:41:18;;;;;;;;;;;;;;;10.18;75.24;95643.66;6371213;27;19923;-66
2022/05/10 07:44:22;;;;;;;;;;;;;;;10.31;75.19;95644.34;6366562;27;19927;-62
2022/05/10 07:47:23;;;;;;;;;;;;;;;10.41;75.04;95649.66;6368645;27;19923;-62
2022/05/10 07:50:25;;;;;;;;;;;;;;;10.53;74.84;95653.91;6367660;27;19927;-62
2022/05/10 07:53:26;;;;;;;;;;;;;;;10.47;74.47;95648.31;6366923;27;19967;-62
2022/05/10 07:56:30;;;;;;;;;;;;;;;10.51;74.93;95641.84;6349210;27;19989;-62
2022/05/10 07:59:31;;;;;;;;;;;;;;;10.45;74.71;95639.75;6363287;27;20338;-63
2022/05/10 08:02:32;;;;;;;;;;;;;;;10.41;75.03;95638.31;6368527;27;19935;-62
2022/05/10 08:05:33;;;;;;;;;;;;;;;10.43;75.03;95641.66;6371903;27;19920;-62
2022/05/10 08:08:36;;;;;;;;;;;;;;;10.47;75.25;95643.06;6354664;27;20019;-62
2022/05/10 08:11:39;;;;;;;;;;;;;;;10.52;75.30;95640.88;6372771;27;19924;-63
2022/05/10 08:14:41;;;;;;;;;;;;;;;10.51;75.27;95647.09;6349468;27;19923;-62
2022/05/10 08:17:42;;;;;;;;;;;;;;;10.50;75.37;95648.91;6373425;27;20410;-62
2022/05/10 08:20:43;;;;;;;;;;;;;;;10.52;75.44;95646.97;6373157;27;19923;-62
2022/05/10 08:23:52;;;;;;;;;;;;;;;10.61;75.63;95647.97;6373967;27;20025;-66
2022/05/10 08:26:53;;;;;;;;;;;;;;;10.74;75.56;95640.72;6372665;27;19924;-61
2022/05/10 08:29:56;;;;;;;;;;;;;;;10.82;75.38;95642.72;6372169;27;20037;-65
2022/05/10 08:32:57;;;;;;;;;;;;;;;11.02;75.65;95633.09;6367149;27;19950;-62
2022/05/10 08:36:01;;;;;;;;;;;;;;;11.13;75.34;95640.91;6373018;27;19923;-62
2022/05/10 08:39:04;;;;;;;;;;;;;;;11.24;75.39;95643.44;6371934;27;19929;-63
2022/05/10 08:42:19;;;;;;;;;;;;;;;11.24;75.25;95648.72;6372724;27;19932;-61
2022/05/10 08:45:24;;;;;;;;;;;;;;;11.21;75.29;95648.97;6371652;27;19924;-62
2022/05/10 08:48:30;;;;;;;;;;;;;;;11.22;75.20;95661.16;6371568;27;19923;-61
2022/05/10 08:51:31;;;;;;;;;;;;;;;11.20;75.16;95657.81;6372444;27;20395;-62
2022/05/10 08:54:36;;;;;;;;;;;;;;;11.24;75.19;95669.78;6372004;27;19923;-62
2022/05/10 08:57:42;;;;;;;;;;;;;;;11.26;75.17;95663.53;6372692;27;19923;-61
2022/05/10 09:00:51;;;;;;;;;;;;;;;11.21;75.26;95654.25;6371749;27;19923;-62
2022/05/10 09:03:58;;;;;;;;;;;;;;;11.22;75.31;95655.91;6370585;27;19919;-63
2022/05/10 09:07:13;;;;;;;;;;;;;;;11.28;75.39;95657.16;6372047;27;20396;-62
2022/05/10 09:10:21;;;;;;;;;;;;;;;11.32;75.53;95658.53;6372195;27;20022;-62
2022/05/10 09:13:24;;;;;;;;;;;;;;;11.33;75.46;95662.88;6349192;27;20324;-63
2022/05/10 09:16:25;;;;;;;;;;;;;;;11.55;76.15;95656.56;6328326;28;19923;-62
2022/05/10 09:19:33;;;;;;;;;;;;;;;11.51;75.72;95664.84;6364729;27;20384;-63
2022/05/10 09:22:37;;;;;;;;;;;;;;;11.58;75.95;95666.00;6371229;27;19985;-62
2022/05/10 09:25:43;;;;;;;;;;;;;;;11.60;76.12;95664.88;6372463;27;19946;-62
2022/05/10 09:28:50;;;;;;;;;;;;;;;11.64;75.92;95661.00;6371689;27;19924;-62
2022/05/10 09:35:25;;;;;;;;;;;;;;;11.61;76.28;95655.19;6370147;27;20328;-63
2022/05/10 09:38:30;;;;;;;;;;;;;;;11.72;76.29;95660.34;6353652;27;20338;-62
2022/05/10 09:41:36;;;;;;;;;;;;;;;11.72;75.95;95670.03;6371063;27;20414;-63
2022/05/10 09:44:37;;;;;;;;;;;;;;;11.79;76.20;95673.78;6371655;27;20458;-62
2022/05/10 09:47:39;;;;;;;;;;;;;;;11.79;76.37;95677.25;6371572;27;19929;-63
2022/05/10 09:50:47;;;;;;;;;;;;;;;12.02;76.65;95671.75;6371792;27;19923;-62
2022/05/10 09:53:48;;;;;;;;;;;;;;;11.94;76.45;95672.44;6370669;27;19924;-62
2022/05/10 09:56:56;;;;;;;;;;;;;;;11.91;77.25;95668.28;6371039;27;19923;-62
2022/05/10 10:00:00;;;;;;;;;;;;;;;11.72;77.20;95677.94;6370899;27;20331;-63
2022/05/10 10:03:03;;;;;;;;;;;;;;;11.69;77.41;95679.88;6367685;27;19930;-63
2022/05/10 10:06:15;;;;;;;;;;;;;;;11.79;77.93;95676.44;6349545;27;19927;-62
2022/05/10 10:09:39;;;;;;;;;;;;;;;11.77;77.71;95676.53;6361403;27;20010;-63
2022/05/10 10:12:41;;;;;;;;;;;;;;;11.79;77.84;95681.69;6359732;28;20279;-63
2022/05/10 10:15:47;;;;;;;;;;;;;;;11.87;78.09;95681.88;6370903;28;20281;-63
2022/05/10 10:18:51;;;;;;;;;;;;;;;11.93;78.11;95681.34;6370428;28;19928;-62
2022/05/10 10:22:14;;;;;;;;;;;;;;;11.93;78.24;95670.78;6370509;28;19931;-61
2022/05/10 10:25:34;;;;;;;;;;;;;;;11.94;78.21;95677.72;6370518;28;20253;-62
2022/05/10 10:28:38;;;;;;;;;;;;;;;11.99;78.79;95670.22;6369436;28;19930;-63
2022/05/10 10:31:52;;;;;;;;;;;;;;;12.03;78.47;95674.28;6369202;27;19925;-62
2022/05/10 10:34:57;;;;;;;;;;;;;;;12.15;78.16;95674.16;6370854;28;19923;-61
2022/05/10 10:38:06;;;;;;;;;;;;;;;12.02;78.23;95674.41;6369704;28;19923;-62
2022/05/10 10:41:25;;;;;;;;;;;;;;;12.03;78.31;95678.69;6370614;27;20035;-63
2022/05/10 10:44:27;;;;;;;;;;;;;;;12.05;78.33;95669.69;6375600;27;19923;-62
2022/05/10 10:47:34;;;;;;;;;;;;;;;12.06;78.56;95671.38;6374825;27;19931;-63
2022/05/10 10:50:40;;;;;;;;;;;;;;;12.12;78.73;95670.81;6376211;27;19927;-62
2022/05/10 10:53:45;;;;;;;;;;;;;;;12.19;78.29;95670.25;6375979;27;19931;-62
2022/05/10 10:57:04;;;;;;;;;;;;;;;12.14;78.61;95668.00;6374692;27;19961;-62
2022/05/10 11:00:08;;;;;;;;;;;;;;;12.13;78.63;95667.19;6374693;27;19930;-62
2022/05/10 11:03:12;;;;;;;;;;;;;;;12.14;78.28;95668.00;6374631;27;19924;-62
2022/05/10 11:06:22;;;;;;;;;;;;;;;12.22;78.58;95669.97;6374209;27;19930;-62
2022/05/10 11:09:23;;;;;;;;;;;;;;;12.20;78.12;95675.41;6374808;27;19931;-62
2022/05/10 11:12:39;;;;;;;;;;;;;;;12.11;78.12;95666.47;6375350;27;19919;-62
2022/05/10 11:15:41;;;;;;;;;;;;;;;12.11;78.29;95668.28;6374813;27;19923;-63
2022/05/10 11:19:02;;;;;;;;;;;;;;;12.16;78.44;95668.72;6361542;27;19928;-62
2022/05/10 11:22:20;;;;;;;;;;;;;;;12.10;78.12;95659.56;6369955;27;19923;-61
2022/05/10 11:25:29;;;;;;;;;;;;;;;12.12;78.33;95665.53;6374785;27;19983;-61
2022/05/10 11:28:43;;;;;;;;;;;;;;;12.12;77.96;95665.53;6356067;27;19923;-62
2022/05/10 11:31:44;;;;;;;;;;;;;;;12.22;77.74;95659.41;6370882;27;19930;-61
2022/05/10 11:35:03;;;;;;;;;;;;;;;12.30;78.54;95662.19;6373052;27;19919;-62
2022/05/10 11:38:10;;;;;;;;;;;;;;;12.25;78.40;95675.78;6374461;27;20030;-61
2022/05/10 11:41:35;;;;;;;;;;;;;;;12.18;78.40;95671.22;6355372;27;19930;-62
2022/05/10 11:45:02;;;;;;;;;;;;;;;12.24;78.66;95673.31;6373595;27;19923;-62
2022/05/10 11:48:26;;;;;;;;;;;;;;;12.20;78.11;95667.50;6374836;27;20026;-62
2022/05/10 11:51:38;;;;;;;;;;;;;;;12.22;78.32;95675.25;6373730;27;20296;-60
2022/05/10 11:55:01;;;;;;;;;;;;;;;12.16;78.26;95678.44;6368627;27;20352;-62
2022/05/10 11:58:07;;;;;;;;;;;;;;;12.16;77.90;95671.34;6344711;27;20396;-61
2022/05/10 12:01:12;;;;;;;;;;;;;;;12.10;78.19;95674.56;6364458;27;20411;-62
2022/05/10 12:04:33;;;;;;;;;;;;;;;12.05;78.47;95674.94;6363947;27;19924;-62
2022/05/10 12:08:02;;;;;;;;;;;;;;;12.01;78.74;95667.47;6366769;27;20249;-62
2022/05/10 12:11:21;;;;;;;;;;;;;;;12.01;78.96;95668.31;6354102;27;19930;-61
2022/05/10 12:21:49;;;;;;;;;;;;;;;12.23;78.47;95661.06;6354259;27;20067;-62
2022/05/10 12:24:52;;;;;;;;;;;;;;;12.39;77.23;95665.78;6372055;27;19923;-62
2022/05/10 12:27:57;;;;;;;;;;;;;;;12.23;77.87;95666.34;6373386;27;20032;-61
2022/05/10 12:30:58;;;;;;;;;;;;;;;12.22;77.91;95659.41;6371273;27;20402;-62
2022/05/10 12:34:06;;;;;;;;;;;;;;;12.21;77.68;95652.50;6347830;27;19924;-62
2022/05/10 12:37:28;;;;;;;;;;;;;;;12.18;77.86;95652.78;6368915;27;19919;-61
2022/05/10 12:40:33;;;;;;;;;;;;;;;12.13;78.04;95654.00;6371750;27;19923;-62
2022/05/10 12:43:41;;;;;;;;;;;;;;;12.36;77.49;95648.44;6365268;27;20312;-64
2022/05/10 12:46:45;;;;;;;;;;;;;;;12.22;77.22;95652.34;6364108;27;19924;-62
2022/05/10 12:49:58;;;;;;;;;;;;;;;12.07;77.78;95653.75;6357066;27;20000;-61
2022/05/10 12:52:59;;;;;;;;;;;;;;;12.17;77.62;95636.09;6240241;28;19951;-61
2022/05/10 12:56:18;;;;;;;;;;;;;;;12.17;77.79;95636.09;6273574;28;19924;-61
2022/05/10 12:59:22;;;;;;;;;;;;;;;12.19;77.86;95643.88;6286987;28;21227;-61
2022/05/10 13:02:29;;;;;;;;;;;;;;;12.15;78.06;95631.97;6280946;28;19940;-62
2022/05/10 13:05:37;;;;;;;;;;;;;;;12.10;77.79;95656.09;6289776;28;19928;-61
2022/05/10 13:08:46;;;;;;;;;;;;;;;12.13;77.24;95638.19;6290776;28;19924;-62
2022/05/10 13:12:18;;;;;;;;;;;;;;;12.09;77.88;95639.44;6285521;28;19924;-62
2022/05/10 13:15:21;;;;;;;;;;;;;;;12.16;77.87;95638.88;6270959;28;20400;-62
2022/05/10 13:18:24;;;;;;;;;;;;;;;12.01;77.88;95641.94;6285994;28;19924;-62
2022/05/10 13:21:27;;;;;;;;;;;;;;;11.85;78.20;95644.25;6285013;28;19931;-62
2022/05/10 13:24:28;;;;;;;;;;;;;;;11.83;78.42;95640.91;6294459;28;19928;-62
2022/05/10 13:27:33;;;;;;;;;;;;;;;11.85;78.87;95628.44;6278567;28;20506;-62
2022/05/10 13:30:38;;;;;;;;;;;;;;;11.89;78.48;95637.78;6295801;28;19924;-61
2022/05/10 13:33:39;;;;;;;;;;;;;;;11.95;78.50;95636.41;6289903;28;19924;-62
2022/05/10 13:36:50;;;;;;;;;;;;;;;12.06;78.49;95615.16;6290700;28;19928;-62
2022/05/10 13:39:51;;;;;;;;;;;;;;;11.91;78.19;95607.66;6287344;28;19924;-62
2022/05/10 13:42:52;;;;;;;;;;;;;;;11.92;78.65;95608.50;6289050;28;20589;-62
2022/05/10 13:45:57;;;;;;;;;;;;;;;11.99;78.49;95617.50;6288912;28;19932;-63
2022/05/10 13:49:05;;;;;;;;;;;;;;;11.95;78.25;95621.41;6294870;28;20022;-61
2022/05/10 13:52:28;;;;;;;;;;;;;;;11.92;78.60;95616.41;6288229;28;20018;-63
2022/05/10 13:55:29;;;;;;;;;;;;;;;11.87;78.60;95624.72;6286111;28;19932;-64
2022/05/10 13:58:38;;;;;;;;;;;;;;;11.86;78.74;95611.66;6285018;28;20316;-63
2022/05/10 14:01:41;;;;;;;;;;;;;;;11.91;78.87;95617.38;6283977;28;19924;-62
2022/05/10 14:04:45;;;;;;;;;;;;;;;11.95;78.84;95605.59;6286354;28;20655;-62
2022/05/10 14:07:54;;;;;;;;;;;;;;;11.91;78.85;95612.09;6286528;28;19932;-63
2022/05/10 14:11:00;;;;;;;;;;;;;;;11.96;78.69;95601.97;6289858;28;19925;-62
2022/05/10 14:14:01;;;;;;;;;;;;;;;12.03;78.93;95608.38;6273468;28;19925;-62
2022/05/10 14:17:06;;;;;;;;;;;;;;;12.05;78.87;95616.13;6275651;28;19935;-62
2022/05/10 14:20:24;;;;;;;;;;;;;;;12.03;78.68;95613.63;6282636;28;19971;-63
2022/05/10 14:23:25;;;;;;;;;;;;;;;11.99;78.46;95601.69;6290985;28;19931;-63
2022/05/10 14:26:38;;;;;;;;;;;;;;;12.04;78.57;95604.75;6288953;28;20065;-63
2022/05/10 14:29:43;;;;;;;;;;;;;;;12.01;78.68;95615.56;6287040;28;19924;-61
2022/05/10 14:32:45;;;;;;;;;;;;;;;12.03;78.44;95612.78;6286009;28;20007;-64
2022/05/10 14:35:50;;;;;;;;;;;;;;;12.07;78.62;95609.75;6285091;28;19980;-62
2022/05/10 14:38:51;;;;;;;;;;;;;;;12.13;78.64;95606.53;6282992;28;19924;-62
2022/05/10 14:41:52;;;;;;;;;;;;;;;12.11;78.34;95615.56;6284414;28;19997;-62
2022/05/10 14:45:14;;;;;;;;;;;;;;;12.12;78.09;95622.53;6289243;28;19925;-63
2022/05/10 14:48:28;;;;;;;;;;;;;;;12.08;78.48;95621.94;6289002;28;19970;-63
2022/05/10 14:51:39;;;;;;;;;;;;;;;12.11;78.62;95621.66;6285734;28;19924;-63
2022/05/10 14:54:46;;;;;;;;;;;;;;;12.07;78.37;95622.09;6288109;28;20301;-63
2022/05/10 14:57:52;;;;;;;;;;;;;;;12.00;78.40;95615.69;6287693;28;20285;-63
2022/05/10 15:01:05;;;;;;;;;;;;;;;12.06;78.04;95623.09;6283784;28;20403;-62
2022/05/10 15:04:09;;;;;;;;;;;;;;;11.99;78.20;95622.78;6286782;28;20081;-63
2022/05/10 15:07:10;;;;;;;;;;;;;;;12.08;78.48;95621.94;6286185;28;20484;-63
2022/05/10 15:10:11;;;;;;;;;;;;;;;11.94;78.33;95630.28;6288439;28;19975;-63
2022/05/10 15:13:15;;;;;;;;;;;;;;;11.93;78.39;95635.69;6282412;28;20030;-64
2022/05/10 15:16:19;;;;;;;;;;;;;;;12.05;78.73;95629.31;6285344;28;20320;-63
2022/05/10 15:19:20;;;;;;;;;;;;;;;11.91;78.56;95620.84;6282987;28;19928;-63
2022/05/10 15:22:21;;;;;;;;;;;;;;;11.93;78.72;95623.34;6273944;28;19925;-63
2022/05/10 15:25:25;;;;;;;;;;;;;;;11.95;78.66;95616.13;6270912;28;20038;-63
2022/05/10 15:28:28;;;;;;;;;;;;;;;11.94;78.90;95624.16;6287068;28;19924;-63
2022/05/10 15:31:32;;;;;;;;;;;;;;;12.00;78.73;95613.94;6289118;28;19925;-63
2022/05/10 15:34:43;;;;;;;;;;;;;;;11.93;78.76;95625.97;6290726;28;20082;-63
2022/05/10 15:37:46;;;;;;;;;;;;;;;11.87;79.09;95616.00;6288647;28;20417;-62
2022/05/10 15:40:53;;;;;;;;;;;;;;;11.88;79.04;95625.56;6293289;28;19928;-63
2022/05/10 15:43:59;;;;;;;;;;;;;;;11.84;79.09;95624.16;6292924;28;19924;-63
2022/05/10 15:47:03;;;;;;;;;;;;;;;11.85;79.03;95625.81;6285870;28;20406;-63
2022/05/10 15:50:06;;;;;;;;;;;;;;;11.87;79.39;95630.00;6285871;28;19946;-62
2022/05/10 15:53:07;;;;;;;;;;;;;;;11.86;79.42;95628.34;6288756;28;19960;-62
2022/05/10 15:56:14;;;;;;;;;;;;;;;11.87;79.26;95621.25;6292838;28;19939;-63
2022/05/10 15:59:15;;;;;;;;;;;;;;;11.93;79.41;95618.06;6287577;28;19924;-62
2022/05/10 16:02:18;;;;;;;;;;;;;;;11.92;79.37;95621.69;6293482;28;19981;-63
2022/05/10 16:05:21;;;;;;;;;;;;;;;11.90;79.34;95618.34;6297158;28;20428;-62
2022/05/10 16:08:22;;;;;;;;;;;;;;;11.86;79.45;95622.22;6293378;28;20412;-63
2022/05/10 16:11:23;;;;;;;;;;;;;;;11.89;79.49;95616.69;6287716;28;19986;-63
2022/05/10 16:14:25;;;;;;;;;;;;;;;11.86;79.47;95616.94;6290532;28;19939;-64
2022/05/10 16:17:32;;;;;;;;;;;;;;;11.86;79.40;95628.34;6291040;28;20279;-62
2022/05/10 16:20:34;;;;;;;;;;;;;;;11.93;79.28;95623.34;6272752;28;19947;-63
2022/05/10 16:23:39;;;;;;;;;;;;;;;11.89;79.40;95621.97;6295942;28;19928;-62
2022/05/10 16:29:59;;;;;;;;;;;;;;;11.83;79.26;95617.19;6294635;28;19924;-62
2022/05/10 16:33:02;;;;;;;;;;;;;;;11.83;79.32;95622.47;6289739;28;20299;-63